Time;durP1;ratioP1;P1;durP2;ratioP2;P2;SDS_P1;SDS_P2;PMS_P1;PMS_P2;Temp;Humidity;BMP_temperature;BMP_pressure;BME280_temperature;BME280_humidity;BME280_pressure;Samples;Min_cycle;Max_cycle;Signal;HPM_P1;HPM_P2
2023/08/07 00:00:54;;;;;;;1.38;0.73;;;16.20;99.90;;;;;;5132772;27;20212;-85
2023/08/07 00:03:24;;;;;;;3.33;0.85;;;16.20;99.90;;;;;;5137095;27;20194;-86
2023/08/07 00:05:58;;;;;;;3.22;0.80;;;16.20;99.90;;;;;;5137745;27;20210;-86
2023/08/07 00:08:30;;;;;;;3.53;0.88;;;16.30;99.90;;;;;;5151115;27;20200;-87
2023/08/07 00:11:11;;;;;;;1.63;0.60;;;16.30;99.90;;;;;;5156808;27;20217;-85
2023/08/07 00:13:42;;;;;;;3.33;0.93;;;16.40;99.90;;;;;;5156687;27;20274;-85
2023/08/07 00:16:12;;;;;;;2.45;0.63;;;16.40;99.90;;;;;;5154999;27;20278;-84
2023/08/07 00:18:46;;;;;;;2.45;0.70;;;16.40;99.90;;;;;;5155916;27;20225;-86
2023/08/07 00:21:17;;;;;;;1.60;1.00;;;16.50;99.90;;;;;;5156637;27;20196;-84
2023/08/07 00:23:48;;;;;;;3.67;1.33;;;16.60;99.90;;;;;;5156036;27;20287;-85
2023/08/07 00:26:23;;;;;;;2.40;1.00;;;16.70;99.90;;;;;;5150834;27;20217;-84
2023/08/07 00:28:54;;;;;;;4.13;1.50;;;16.70;99.90;;;;;;5156334;27;20570;-83
2023/08/07 00:31:25;;;;;;;3.80;0.90;;;16.70;99.90;;;;;;5156619;27;20293;-84
2023/08/07 00:33:56;;;;;;;2.47;0.60;;;16.80;99.90;;;;;;5151867;27;20232;-83
2023/08/07 00:36:28;;;;;;;1.50;0.68;;;16.80;99.90;;;;;;5140664;27;20209;-85
2023/08/07 00:38:59;;;;;;;2.15;0.50;;;16.80;99.90;;;;;;5141765;27;20276;-86
2023/08/07 00:41:31;;;;;;;1.70;0.57;;;16.90;99.90;;;;;;5155588;27;20201;-84
2023/08/07 00:44:03;;;;;;;2.05;0.50;;;17.00;99.90;;;;;;5136955;27;20197;-85
2023/08/07 00:46:34;;;;;;;0.80;0.50;;;17.10;99.90;;;;;;5152355;27;20200;-86
2023/08/07 00:49:05;;;;;;;2.42;1.08;;;17.10;99.90;;;;;;5156190;27;20311;-84
2023/08/07 00:51:37;;;;;;;0.40;0.40;;;17.20;99.90;;;;;;5139186;27;20250;-84
2023/08/07 00:54:10;;;;;;;0.82;0.30;;;17.20;99.90;;;;;;5135433;27;20200;-85
2023/08/07 00:56:44;;;;;;;2.72;0.60;;;17.30;99.90;;;;;;5136886;27;20669;-85
2023/08/07 00:59:15;;;;;;;0.93;0.40;;;17.30;99.90;;;;;;5136083;27;20205;-84
2023/08/07 01:01:46;;;;;;;0.88;0.35;;;17.30;99.90;;;;;;5139073;27;20193;-85
2023/08/07 01:04:17;;;;;;;1.60;0.43;;;17.30;99.90;;;;;;5155424;27;20634;-85
2023/08/07 01:06:50;;;;;;;0.95;0.50;;;17.30;99.90;;;;;;5157550;27;20224;-85
2023/08/07 01:09:21;;;;;;;1.35;0.60;;;17.40;99.90;;;;;;5158859;27;20226;-83
2023/08/07 01:12:00;;;;;;;1.85;0.75;;;17.40;99.90;;;;;;5149708;27;20217;-85
2023/08/07 01:17:28;;;;;;;1.92;0.47;;;17.70;99.90;;;;;;5130768;27;20221;-85
2023/08/07 01:20:01;;;;;;;1.35;0.50;;;17.80;99.90;;;;;;5145432;27;20254;-83
2023/08/07 01:22:33;;;;;;;1.08;0.50;;;17.90;99.90;;;;;;5142244;27;20202;-84
2023/08/07 01:25:04;;;;;;;2.88;0.70;;;17.90;99.90;;;;;;5151515;27;20190;-84
2023/08/07 01:27:39;;;;;;;1.25;0.60;;;18.00;99.90;;;;;;5134049;27;20197;-83
2023/08/07 01:30:19;;;;;;;2.15;0.60;;;18.00;99.90;;;;;;5132555;27;20195;-83
2023/08/07 01:33:01;;;;;;;3.05;0.75;;;18.00;99.90;;;;;;5153448;27;20204;-84
2023/08/07 01:35:35;;;;;;;2.28;0.60;;;17.90;99.90;;;;;;5152645;27;20196;-82
2023/08/07 01:38:08;;;;;;;3.67;0.80;;;17.80;99.90;;;;;;5154941;27;20194;-84
2023/08/07 01:40:41;;;;;;;0.93;0.70;;;17.80;99.90;;;;;;5157182;27;20197;-83
2023/08/07 01:43:12;;;;;;;1.30;0.63;;;17.70;99.90;;;;;;5134275;27;20623;-83
2023/08/07 01:45:44;;;;;;;0.95;0.50;;;17.70;99.90;;;;;;5133454;27;20198;-83
2023/08/07 01:48:15;;;;;;;1.25;0.50;;;17.70;99.90;;;;;;5133888;27;20194;-84
2023/08/07 01:50:46;;;;;;;1.65;0.50;;;17.70;99.90;;;;;;5134113;27;20221;-83
2023/08/07 01:53:18;;;;;;;1.10;0.60;;;17.70;99.90;;;;;;5133875;27;20202;-85
2023/08/07 01:55:49;;;;;;;2.83;0.70;;;17.70;99.90;;;;;;5144987;27;20193;-84
2023/08/07 01:58:20;;;;;;;1.85;0.68;;;17.70;99.90;;;;;;5154941;27;20197;-84
2023/08/07 02:00:51;;;;;;;1.10;0.50;;;17.70;99.90;;;;;;5148515;27;20186;-84
2023/08/07 02:03:21;;;;;;;2.92;0.70;;;17.70;99.90;;;;;;5133301;27;20192;-84
2023/08/07 02:05:52;;;;;;;2.03;0.60;;;17.80;99.90;;;;;;5133691;27;20292;-84
2023/08/07 02:08:26;;;;;;;1.95;0.50;;;17.80;99.90;;;;;;5133067;27;20193;-84
2023/08/07 02:10:56;;;;;;;1.73;0.90;;;17.70;99.90;;;;;;5134082;27;20221;-85
2023/08/07 02:13:27;;;;;;;1.27;0.70;;;17.80;99.90;;;;;;5132326;27;20194;-84
2023/08/07 02:15:58;;;;;;;0.65;0.60;;;17.80;99.90;;;;;;5132144;27;20213;-83
2023/08/07 02:18:29;;;;;;;2.22;0.65;;;17.80;99.90;;;;;;5132409;27;20676;-85
2023/08/07 02:21:00;;;;;;;1.63;0.55;;;17.80;99.90;;;;;;5136924;27;20644;-84
2023/08/07 02:23:32;;;;;;;2.58;0.68;;;17.80;99.90;;;;;;5138690;27;20288;-83
2023/08/07 02:26:03;;;;;;;0.82;0.57;;;17.80;99.90;;;;;;5133517;27;20196;-83
2023/08/07 02:28:34;;;;;;;2.53;1.02;;;17.80;99.90;;;;;;5133584;27;20277;-83
2023/08/07 02:31:05;;;;;;;7.55;2.78;;;17.80;99.90;;;;;;5141878;27;20221;-84
2023/08/07 02:33:36;;;;;;;3.88;1.80;;;17.70;99.90;;;;;;5145218;27;20197;-82
2023/08/07 02:36:06;;;;;;;8.00;3.33;;;17.70;99.90;;;;;;5155766;27;20731;-84
2023/08/07 02:38:40;;;;;;;4.10;1.20;;;17.70;99.90;;;;;;5140385;27;20204;-83
2023/08/07 02:41:11;;;;;;;1.88;0.73;;;17.70;99.90;;;;;;5134118;27;20208;-85
2023/08/07 02:43:42;;;;;;;1.58;0.63;;;17.60;99.90;;;;;;5150741;27;20193;-84
2023/08/07 02:46:12;;;;;;;2.85;0.88;;;17.50;99.90;;;;;;5152782;27;20232;-84
2023/08/07 02:48:43;;;;;;;2.83;0.80;;;17.60;99.90;;;;;;5163394;27;20213;-82
2023/08/07 02:51:15;;;;;;;1.20;0.50;;;17.60;99.90;;;;;;5161554;27;20204;-83
2023/08/07 02:53:48;;;;;;;2.35;0.80;;;17.50;99.90;;;;;;5147062;27;20642;-83
2023/08/07 02:56:19;;;;;;;0.75;0.40;;;17.30;99.90;;;;;;5137462;27;20194;-83
2023/08/07 02:58:50;;;;;;;1.48;0.50;;;17.30;99.90;;;;;;5133113;27;20198;-83
2023/08/07 03:01:22;;;;;;;2.15;0.55;;;17.30;99.90;;;;;;5147759;27;20200;-84
2023/08/07 03:03:55;;;;;;;0.82;0.40;;;17.40;99.90;;;;;;5148107;27;20701;-84
2023/08/07 03:06:26;;;;;;;1.25;0.63;;;17.50;99.90;;;;;;5150488;27;20217;-84
2023/08/07 03:08:58;;;;;;;1.17;0.50;;;17.60;99.90;;;;;;5153978;27;20201;-85
2023/08/07 03:11:29;;;;;;;1.38;0.50;;;17.70;99.90;;;;;;5132683;27;20275;-83
2023/08/07 03:14:00;;;;;;;0.82;0.40;;;17.70;99.90;;;;;;5142692;27;20571;-82
2023/08/07 03:16:36;;;;;;;2.10;0.70;;;17.80;99.90;;;;;;5152905;27;20200;-82
2023/08/07 03:19:07;;;;;;;1.98;0.70;;;17.80;99.90;;;;;;5136570;27;20308;-84
2023/08/07 03:21:38;;;;;;;1.13;0.57;;;17.70;99.90;;;;;;5137908;27;20199;-84
2023/08/07 03:24:11;;;;;;;0.60;0.60;;;17.80;99.90;;;;;;5152197;27;20265;-84
2023/08/07 03:26:47;;;;;;;1.08;0.68;;;17.90;99.90;;;;;;5153119;27;20217;-82
2023/08/07 03:29:18;;;;;;;1.17;0.65;;;17.90;99.90;;;;;;5152664;27;20257;-83
2023/08/07 03:31:48;;;;;;;1.40;0.70;;;17.80;99.90;;;;;;5143169;27;20217;-82
2023/08/07 03:34:19;;;;;;;1.77;0.57;;;17.90;99.90;;;;;;5132013;27;20194;-85
2023/08/07 03:36:50;;;;;;;0.85;0.30;;;18.00;99.90;;;;;;5150311;27;20197;-85
2023/08/07 03:39:23;;;;;;;1.40;0.57;;;18.10;99.90;;;;;;5137844;27;20229;-86
2023/08/07 03:41:54;;;;;;;0.50;0.50;;;17.90;99.90;;;;;;5136558;27;20926;-86
2023/08/07 03:44:25;;;;;;;2.47;0.85;;;18.00;99.90;;;;;;5136363;27;20193;-85
2023/08/07 03:46:57;;;;;;;0.85;0.40;;;18.00;99.90;;;;;;5146535;27;20250;-86
2023/08/07 03:49:29;;;;;;;1.73;0.52;;;18.00;99.90;;;;;;5144472;27;20229;-86
2023/08/07 03:52:00;;;;;;;2.17;0.57;;;18.00;99.90;;;;;;5160278;27;20215;-84
2023/08/07 03:54:33;;;;;;;1.10;0.43;;;18.00;99.90;;;;;;5144912;27;20186;-86
2023/08/07 03:57:08;;;;;;;1.25;0.60;;;18.00;99.90;;;;;;5141036;27;20198;-87
2023/08/07 03:59:39;;;;;;;2.67;0.60;;;18.00;99.90;;;;;;5142430;27;20180;-85
2023/08/07 04:02:10;;;;;;;2.33;0.47;;;18.20;99.90;;;;;;5140646;27;20198;-84
2023/08/07 04:04:40;;;;;;;1.60;0.65;;;18.10;99.90;;;;;;5139864;27;20202;-86
2023/08/07 04:07:11;;;;;;;1.80;0.50;;;18.10;99.90;;;;;;5146893;27;20281;-84
2023/08/07 04:09:47;;;;;;;2.75;0.50;;;18.20;99.90;;;;;;5156909;27;20193;-86
2023/08/07 04:12:18;;;;;;;0.50;0.30;;;18.20;99.90;;;;;;5142858;27;20304;-84
2023/08/07 04:14:49;;;;;;;1.10;0.20;;;18.20;99.90;;;;;;5152942;27;20211;-83
2023/08/07 04:17:20;;;;;;;1.75;0.50;;;18.20;99.90;;;;;;5146624;27;20236;-87
2023/08/07 04:19:51;;;;;;;0.90;0.65;;;18.20;99.90;;;;;;5142704;27;20190;-84
2023/08/07 04:22:22;;;;;;;1.80;0.82;;;18.30;99.90;;;;;;5136878;27;20197;-87
2023/08/07 04:24:54;;;;;;;2.35;0.70;;;18.30;99.90;;;;;;5139863;27;20544;-85
2023/08/07 04:27:25;;;;;;;2.60;0.77;;;18.30;99.90;;;;;;5135252;27;20194;-84
2023/08/07 04:29:58;;;;;;;1.95;0.60;;;18.30;99.90;;;;;;5135715;27;20633;-84
2023/08/07 04:32:29;;;;;;;0.85;0.60;;;18.40;99.90;;;;;;5134425;27;20222;-83
2023/08/07 04:35:01;;;;;;;3.30;0.68;;;18.30;99.90;;;;;;5138261;27;20186;-85
2023/08/07 04:37:32;;;;;;;1.90;0.65;;;18.30;99.90;;;;;;5135345;27;20194;-82
2023/08/07 04:40:05;;;;;;;3.28;0.80;;;18.30;99.90;;;;;;5138291;27;20194;-85
2023/08/07 04:42:36;;;;;;;1.52;0.60;;;18.40;99.90;;;;;;5146900;27;20243;-85
2023/08/07 04:45:07;;;;;;;4.13;0.75;;;18.30;99.90;;;;;;5137878;27;20190;-84
2023/08/07 04:47:38;;;;;;;1.42;0.40;;;18.20;99.90;;;;;;5134849;27;20190;-85
2023/08/07 04:50:09;;;;;;;2.63;0.40;;;18.00;99.90;;;;;;5134634;27;20194;-85
2023/08/07 04:52:40;;;;;;;1.92;0.50;;;18.10;99.90;;;;;;5144099;27;20266;-85
2023/08/07 04:55:14;;;;;;;2.22;0.50;;;18.10;99.90;;;;;;5155351;27;20280;-84
2023/08/07 04:57:46;;;;;;;1.85;0.75;;;18.10;99.90;;;;;;5135637;27;20201;-85
2023/08/07 05:00:17;;;;;;;1.85;0.50;;;18.00;99.90;;;;;;5136665;27;20330;-84
2023/08/07 05:02:49;;;;;;;2.45;0.77;;;17.90;99.90;;;;;;5137131;27;20280;-86
2023/08/07 05:05:21;;;;;;;2.33;0.90;;;17.80;99.90;;;;;;5141248;27;20193;-87
2023/08/07 05:07:52;;;;;;;1.70;0.68;;;17.70;99.90;;;;;;5160293;27;20197;-85
2023/08/07 05:10:25;;;;;;;1.73;0.60;;;17.70;99.90;;;;;;5156240;27;20181;-86
2023/08/07 05:12:56;;;;;;;2.22;0.73;;;17.60;99.90;;;;;;5145423;27;20235;-85
2023/08/07 05:15:28;;;;;;;1.77;0.70;;;17.60;99.90;;;;;;5142991;27;20181;-84
2023/08/07 05:17:59;;;;;;;2.55;0.63;;;17.60;99.90;;;;;;5155067;27;20263;-85
2023/08/07 05:20:30;;;;;;;1.27;0.57;;;17.60;99.90;;;;;;5140821;27;20190;-86
2023/08/07 05:23:01;;;;;;;1.23;0.45;;;17.60;99.90;;;;;;5149372;27;20264;-87
2023/08/07 05:25:34;;;;;;;0.98;0.57;;;17.40;99.90;;;;;;5155443;27;20190;-86
2023/08/07 05:28:05;;;;;;;0.55;0.40;;;17.40;99.90;;;;;;5136042;27;20201;-86
2023/08/07 05:30:36;;;;;;;2.20;0.57;;;17.40;99.90;;;;;;5155588;27;20197;-86
2023/08/07 05:33:07;;;;;;;3.10;0.80;;;17.40;99.90;;;;;;5153852;27;20232;-86
2023/08/07 05:35:37;;;;;;;1.48;0.68;;;17.40;99.90;;;;;;5161170;27;20224;-86
2023/08/07 05:38:08;;;;;;;1.10;0.40;;;17.40;99.90;;;;;;5141221;27;20194;-85
2023/08/07 05:40:41;;;;;;;1.05;0.60;;;17.20;99.90;;;;;;5136062;27;20218;-85
2023/08/07 05:43:13;;;;;;;1.25;0.55;;;17.20;99.90;;;;;;5136359;27;20266;-86
2023/08/07 05:45:44;;;;;;;2.42;0.50;;;17.20;99.90;;;;;;5155764;27;20193;-86
2023/08/07 05:48:16;;;;;;;1.95;0.50;;;17.20;99.90;;;;;;5153887;27;20603;-86
2023/08/07 05:50:46;;;;;;;0.90;0.50;;;17.20;99.90;;;;;;5153893;27;20217;-86
2023/08/07 05:53:17;;;;;;;1.45;0.35;;;17.20;99.90;;;;;;5145530;27;20232;-87
2023/08/07 05:55:50;;;;;;;2.38;0.57;;;17.20;99.90;;;;;;5134409;27;20194;-85
2023/08/07 05:58:21;;;;;;;0.50;0.30;;;17.20;99.90;;;;;;5133601;27;20736;-87
2023/08/07 06:00:52;;;;;;;1.48;0.40;;;17.10;99.90;;;;;;5136728;27;20200;-87
2023/08/07 06:03:23;;;;;;;3.90;0.70;;;17.10;99.90;;;;;;5156792;27;20559;-86
2023/08/07 06:05:54;;;;;;;0.75;0.40;;;17.00;99.90;;;;;;5145189;27;20189;-86
2023/08/07 06:08:25;;;;;;;0.98;0.57;;;17.10;99.90;;;;;;5154510;27;20703;-87
2023/08/07 06:10:58;;;;;;;1.42;0.50;;;17.10;99.90;;;;;;5154711;27;20197;-86
2023/08/07 06:13:28;;;;;;;1.33;0.50;;;17.00;99.90;;;;;;5141097;27;20718;-86
2023/08/07 06:15:59;;;;;;;2.40;0.50;;;17.00;99.90;;;;;;5137312;27;20596;-86
2023/08/07 06:18:30;;;;;;;1.17;0.50;;;17.00;99.90;;;;;;5152296;27;20264;-87
2023/08/07 06:21:01;;;;;;;0.80;0.50;;;17.00;99.90;;;;;;5155612;27;20211;-83
2023/08/07 06:23:35;;;;;;;0.40;0.40;;;16.90;99.90;;;;;;5164672;27;20201;-85
2023/08/07 06:26:08;;;;;;;4.30;0.50;;;17.00;99.90;;;;;;5144001;27;20187;-87
2023/08/07 06:28:39;;;;;;;0.40;0.30;;;17.00;99.90;;;;;;5139746;27;20548;-86
2023/08/07 06:31:13;;;;;;;1.38;0.20;;;16.90;99.90;;;;;;5134058;27;20192;-84
2023/08/07 06:33:44;;;;;;;0.68;0.40;;;17.00;99.90;;;;;;5133904;27;20216;-86
2023/08/07 06:36:15;;;;;;;1.70;0.50;;;17.00;99.90;;;;;;5134203;27;20464;-85
2023/08/07 06:38:46;;;;;;;1.27;0.60;;;17.00;99.90;;;;;;5140618;27;20644;-85
2023/08/07 06:41:18;;;;;;;1.95;0.70;;;17.00;99.90;;;;;;5134194;27;20585;-85
2023/08/07 06:43:49;;;;;;;0.73;0.50;;;17.00;99.90;;;;;;5133602;27;20539;-86
2023/08/07 06:46:24;;;;;;;2.17;0.63;;;17.00;99.90;;;;;;5134434;27;20194;-85
2023/08/07 06:48:55;;;;;;;1.88;0.70;;;16.90;99.90;;;;;;5138682;27;20185;-84
2023/08/07 06:51:26;;;;;;;1.02;0.70;;;16.80;99.90;;;;;;5149858;27;20182;-85
2023/08/07 06:53:57;;;;;;;0.88;0.60;;;16.90;99.90;;;;;;5149349;27;20221;-88
2023/08/07 06:56:30;;;;;;;1.60;0.70;;;16.90;99.90;;;;;;5154721;27;20194;-86
2023/08/07 06:59:01;;;;;;;1.05;0.60;;;16.80;99.90;;;;;;5168908;27;20173;-86
2023/08/07 07:01:32;;;;;;;2.70;0.80;;;16.80;99.90;;;;;;5170272;27;20209;-84
2023/08/07 07:04:02;;;;;;;1.92;0.90;;;16.80;99.90;;;;;;5144237;27;20657;-86
2023/08/07 07:06:34;;;;;;;1.13;0.63;;;16.80;99.90;;;;;;5138464;28;20193;-85
2023/08/07 07:09:05;;;;;;;4.53;0.90;;;16.70;99.90;;;;;;5154101;27;20204;-87
2023/08/07 07:11:38;;;;;;;3.15;0.90;;;16.70;99.90;;;;;;5132985;27;20201;-85
2023/08/07 07:14:09;;;;;;;2.40;0.70;;;16.70;99.90;;;;;;5135963;27;20352;-86
2023/08/07 07:16:39;;;;;;;1.83;0.98;;;16.70;99.90;;;;;;5137485;27;20202;-86
2023/08/07 07:19:10;;;;;;;2.50;0.80;;;16.70;99.90;;;;;;5136510;27;20228;-85
2023/08/07 07:21:45;;;;;;;2.90;0.85;;;16.70;99.90;;;;;;5137042;27;20194;-85
2023/08/07 07:24:15;;;;;;;2.67;0.90;;;16.60;99.90;;;;;;5136896;27;20545;-84
2023/08/07 07:26:48;;;;;;;2.83;0.80;;;16.60;99.90;;;;;;5136516;27;20680;-85
2023/08/07 07:29:20;;;;;;;2.38;0.88;;;16.50;99.90;;;;;;5146041;27;20201;-85
2023/08/07 07:31:54;;;;;;;2.03;0.93;;;16.50;99.90;;;;;;5141932;27;20234;-85
2023/08/07 07:34:25;;;;;;;3.00;1.13;;;16.50;99.90;;;;;;5138181;27;20205;-87
2023/08/07 07:36:56;;;;;;;5.72;3.00;;;16.40;99.90;;;;;;5149282;27;20189;-84
2023/08/07 07:39:28;;;;;;;9.23;4.75;;;16.40;99.90;;;;;;5158218;27;20193;-85
2023/08/07 07:42:01;;;;;;;9.45;5.35;;;16.40;99.90;;;;;;5144152;27;20229;-86
2023/08/07 07:44:31;;;;;;;2.47;1.20;;;16.40;99.90;;;;;;5155737;27;20193;-85
2023/08/07 07:47:05;;;;;;;2.60;1.30;;;16.40;99.90;;;;;;5145258;27;20209;-86
2023/08/07 07:49:37;;;;;;;3.15;1.40;;;16.40;99.90;;;;;;5138930;27;20286;-85
2023/08/07 07:52:09;;;;;;;6.90;4.45;;;16.30;99.90;;;;;;5135903;27;20197;-85
2023/08/07 07:54:39;;;;;;;2.80;1.50;;;16.30;99.90;;;;;;5136218;27;20194;-85
2023/08/07 07:57:12;;;;;;;2.90;1.00;;;16.30;99.90;;;;;;5139630;27;20190;-85
2023/08/07 07:59:43;;;;;;;2.50;0.80;;;16.20;99.90;;;;;;5151533;27;20193;-85
2023/08/07 08:02:15;;;;;;;1.83;0.95;;;16.20;99.90;;;;;;5153324;27;20201;-85
2023/08/07 08:04:46;;;;;;;2.17;0.90;;;16.20;99.90;;;;;;5156379;27;20684;-84
2023/08/07 08:07:17;;;;;;;3.80;1.25;;;16.20;99.90;;;;;;5156305;27;20326;-85
2023/08/07 08:09:48;;;;;;;3.63;1.90;;;16.20;99.90;;;;;;5138039;27;20250;-84
2023/08/07 08:12:20;;;;;;;3.72;1.40;;;16.10;99.90;;;;;;5138228;27;20190;-84
2023/08/07 08:14:58;;;;;;;3.58;1.48;;;16.10;99.90;;;;;;5143777;27;20254;-85
2023/08/07 08:17:30;;;;;;;2.67;1.20;;;16.10;99.90;;;;;;5154400;27;20221;-86
2023/08/07 08:20:01;;;;;;;3.05;1.20;;;16.10;99.90;;;;;;5139648;27;20562;-86
2023/08/07 08:22:33;;;;;;;2.20;1.10;;;16.10;99.90;;;;;;5138340;27;20186;-87
2023/08/07 08:25:06;;;;;;;4.25;1.40;;;16.10;99.90;;;;;;5137430;27;20198;-85
2023/08/07 08:27:40;;;;;;;8.98;2.47;;;16.10;99.90;;;;;;5137982;27;20190;-87
2023/08/07 08:30:12;;;;;;;9.90;5.57;;;16.10;99.90;;;;;;5137337;27;20197;-86
2023/08/07 08:32:43;;;;;;;10.48;3.50;;;16.00;99.90;;;;;;5135789;27;20218;-84
2023/08/07 08:35:13;;;;;;;6.00;2.80;;;16.00;99.90;;;;;;5138283;27;20607;-85
2023/08/07 08:37:44;;;;;;;6.72;2.75;;;16.00;99.90;;;;;;5136920;27;20202;-85
2023/08/07 08:40:17;;;;;;;5.22;2.10;;;16.00;99.90;;;;;;5142179;27;20196;-85
2023/08/07 08:42:50;;;;;;;4.15;1.98;;;16.00;99.90;;;;;;5157065;27;20197;-84
2023/08/07 08:45:23;;;;;;;6.55;2.45;;;16.10;99.90;;;;;;5157646;27;20194;-83
2023/08/07 08:47:57;;;;;;;11.52;4.45;;;16.10;99.90;;;;;;5146982;27;20198;-84
2023/08/07 08:50:28;;;;;;;9.52;3.97;;;16.10;99.90;;;;;;5147350;27;20212;-83
2023/08/07 08:53:00;;;;;;;10.25;4.15;;;16.00;99.90;;;;;;5158208;27;20232;-84
2023/08/07 08:55:32;;;;;;;8.43;3.65;;;16.00;99.90;;;;;;5139305;27;20704;-84
2023/08/07 08:58:05;;;;;;;8.60;2.90;;;16.00;99.90;;;;;;5135097;27;20601;-84
2023/08/07 09:00:36;;;;;;;7.50;2.83;;;16.00;99.90;;;;;;5134830;27;20227;-84
2023/08/07 09:03:07;;;;;;;5.25;2.95;;;16.00;99.90;;;;;;5134718;27;20204;-85
2023/08/07 09:05:39;;;;;;;7.82;3.53;;;16.00;99.90;;;;;;5135138;27;20193;-85
2023/08/07 09:08:12;;;;;;;7.03;3.38;;;16.00;99.90;;;;;;5134763;27;20206;-84
2023/08/07 09:10:43;;;;;;;4.70;3.08;;;16.00;99.90;;;;;;5134659;27;20244;-85
2023/08/07 09:13:19;;;;;;;6.30;2.47;;;16.00;99.90;;;;;;5135272;27;20214;-85
2023/08/07 09:15:51;;;;;;;7.28;2.45;;;16.00;99.90;;;;;;5134817;27;20311;-85
2023/08/07 09:18:22;;;;;;;3.08;1.70;;;16.00;99.90;;;;;;5135245;27;20226;-85
2023/08/07 09:20:53;;;;;;;5.35;2.10;;;16.00;99.90;;;;;;5134756;27;20571;-85
2023/08/07 09:23:24;;;;;;;4.47;1.80;;;16.00;99.90;;;;;;5135289;27;20204;-86
2023/08/07 09:26:03;;;;;;;3.08;1.73;;;16.00;99.90;;;;;;5132960;27;20531;-85
2023/08/07 09:28:37;;;;;;;2.40;1.30;;;16.00;99.90;;;;;;5133661;27;20229;-85
2023/08/07 09:31:11;;;;;;;6.43;2.88;;;16.00;99.90;;;;;;5134158;27;20194;-85
2023/08/07 09:33:43;;;;;;;8.32;3.75;;;16.00;99.90;;;;;;5134424;27;20305;-86
2023/08/07 09:36:17;;;;;;;4.10;2.50;;;16.00;99.90;;;;;;5154086;27;20651;-85
2023/08/07 09:38:52;;;;;;;6.35;2.40;;;16.00;99.90;;;;;;5154617;27;20235;-85
2023/08/07 09:41:24;;;;;;;5.65;3.10;;;15.90;99.90;;;;;;5149769;27;20232;-84
2023/08/07 09:43:57;;;;;;;6.90;2.97;;;16.00;99.90;;;;;;5138103;27;20285;-84
2023/08/07 09:46:30;;;;;;;5.43;3.22;;;15.90;99.90;;;;;;5138169;27;20243;-84
2023/08/07 09:49:02;;;;;;;7.30;3.90;;;15.90;99.90;;;;;;5133225;27;20229;-85
2023/08/07 09:51:45;;;;;;;5.18;3.45;;;15.90;99.90;;;;;;5133214;27;20280;-85
2023/08/07 09:54:16;;;;;;;4.82;3.05;;;15.90;99.90;;;;;;5132905;27;20755;-86
2023/08/07 09:56:49;;;;;;;7.63;4.07;;;15.90;99.90;;;;;;5160413;27;20217;-84
2023/08/07 09:59:23;;;;;;;6.30;4.00;;;15.90;99.90;;;;;;5175450;27;20193;-83
2023/08/07 10:01:55;;;;;;;8.43;4.30;;;15.90;99.90;;;;;;5165374;27;20201;-85
2023/08/07 10:04:26;;;;;;;7.53;4.25;;;15.80;99.90;;;;;;5121941;27;20712;-87
2023/08/07 10:06:58;;;;;;;6.53;3.58;;;15.80;99.90;;;;;;5136130;27;20196;-85
2023/08/07 10:09:31;;;;;;;5.28;3.28;;;15.90;99.90;;;;;;5133820;27;20221;-85
2023/08/07 10:12:03;;;;;;;9.90;4.00;;;15.90;99.90;;;;;;5133856;27;20198;-87
2023/08/07 10:14:40;;;;;;;11.95;4.80;;;16.00;99.90;;;;;;5136588;27;20216;-86
2023/08/07 10:17:21;;;;;;;6.95;3.53;;;16.00;99.90;;;;;;5138180;27;20561;-86
2023/08/07 10:19:57;;;;;;;8.35;5.30;;;16.00;99.90;;;;;;5134086;27;20201;-85
2023/08/07 10:22:34;;;;;;;10.10;5.32;;;16.00;99.90;;;;;;5127623;27;20193;-87
2023/08/07 10:25:06;;;;;;;10.25;5.40;;;16.00;99.90;;;;;;5133439;27;20567;-86
2023/08/07 10:27:39;;;;;;;10.30;5.05;;;16.00;99.90;;;;;;5133539;27;20581;-85
2023/08/07 10:30:16;;;;;;;6.82;3.72;;;16.10;99.90;;;;;;5133000;27;20200;-85
2023/08/07 10:32:48;;;;;;;5.20;3.13;;;16.10;99.90;;;;;;5134269;27;20201;-86
2023/08/07 10:35:37;;;;;;;5.15;2.67;;;16.10;99.90;;;;;;5137212;27;20244;-85
2023/08/07 10:38:11;;;;;;;7.03;3.90;;;16.10;99.90;;;;;;5147560;27;20205;-85
2023/08/07 10:41:03;;;;;;;8.43;3.97;;;16.00;99.90;;;;;;5153103;27;20613;-85
2023/08/07 10:43:38;;;;;;;9.35;3.83;;;16.00;99.90;;;;;;5138499;27;20214;-86
2023/08/07 10:46:13;;;;;;;5.55;3.13;;;16.00;99.90;;;;;;5140207;27;20200;-85
2023/08/07 10:48:46;;;;;;;4.63;2.88;;;16.00;99.90;;;;;;5133731;27;20656;-85
2023/08/07 10:51:18;;;;;;;5.25;3.15;;;16.00;99.90;;;;;;5135323;27;21064;-86
2023/08/07 10:53:51;;;;;;;5.22;3.25;;;16.00;99.90;;;;;;5132757;27;20321;-85
2023/08/07 10:56:32;;;;;;;4.55;3.13;;;16.00;99.90;;;;;;5132485;27;20329;-86
2023/08/07 10:59:11;;;;;;;5.10;2.90;;;15.90;99.90;;;;;;5135415;27;20190;-86
2023/08/07 11:01:53;;;;;;;3.42;2.42;;;15.90;99.90;;;;;;5131870;27;20186;-85
2023/08/07 11:04:26;;;;;;;3.85;2.75;;;15.90;99.90;;;;;;5132642;27;20193;-85
2023/08/07 11:06:57;;;;;;;4.97;2.78;;;15.90;99.90;;;;;;5137115;27;20272;-86
2023/08/07 11:09:29;;;;;;;4.22;2.63;;;15.80;99.90;;;;;;5138404;27;20200;-85
2023/08/07 11:12:00;;;;;;;7.68;3.67;;;15.80;99.90;;;;;;5151515;27;20291;-85
2023/08/07 11:14:33;;;;;;;6.88;4.05;;;15.80;99.90;;;;;;5131438;27;20225;-85
2023/08/07 11:17:07;;;;;;;5.35;3.33;;;15.70;99.90;;;;;;5141302;27;20280;-85
2023/08/07 11:19:38;;;;;;;5.32;3.40;;;15.70;99.90;;;;;;5131848;27;20193;-85
2023/08/07 11:22:09;;;;;;;6.35;3.83;;;15.60;99.90;;;;;;5137434;27;20238;-85
2023/08/07 11:24:41;;;;;;;5.88;3.33;;;15.60;99.90;;;;;;5141815;27;20221;-86
2023/08/07 11:27:12;;;;;;;5.13;3.40;;;15.60;99.90;;;;;;5137438;27;20284;-86
2023/08/07 11:29:43;;;;;;;5.22;3.40;;;15.50;99.90;;;;;;5148576;27;20255;-86
2023/08/07 11:32:18;;;;;;;6.15;3.40;;;15.50;99.90;;;;;;5141605;27;20508;-85
2023/08/07 11:34:53;;;;;;;6.07;3.35;;;15.40;99.90;;;;;;5151002;27;20801;-85
2023/08/07 11:37:24;;;;;;;4.82;3.08;;;15.40;99.90;;;;;;5148122;27;20201;-84
2023/08/07 11:40:01;;;;;;;5.95;3.08;;;15.40;99.90;;;;;;5145570;27;20602;-85
2023/08/07 11:42:32;;;;;;;5.85;3.28;;;15.40;99.90;;;;;;5145376;27;20213;-84
2023/08/07 11:45:04;;;;;;;8.32;3.38;;;15.40;99.90;;;;;;5153556;27;20281;-85
2023/08/07 11:47:37;;;;;;;7.57;3.85;;;15.40;99.90;;;;;;5157941;27;20236;-85
2023/08/07 11:50:09;;;;;;;4.85;3.00;;;15.40;99.90;;;;;;5140798;27;20216;-86
2023/08/07 11:52:40;;;;;;;4.28;3.10;;;15.40;99.90;;;;;;5154914;27;20198;-87
2023/08/07 11:55:11;;;;;;;4.50;3.45;;;15.40;99.90;;;;;;5158093;27;20248;-87
2023/08/07 11:57:45;;;;;;;6.15;3.33;;;15.30;99.90;;;;;;5134080;27;20208;-86
2023/08/07 12:00:16;;;;;;;6.18;3.63;;;15.40;99.90;;;;;;5140145;27;20204;-88
2023/08/07 12:02:51;;;;;;;7.25;3.55;;;15.40;99.90;;;;;;5147461;27;20541;-85
2023/08/07 12:05:23;;;;;;;6.32;3.45;;;15.40;99.90;;;;;;5157063;27;20270;-86
2023/08/07 12:07:54;;;;;;;4.47;3.35;;;15.40;99.90;;;;;;5136126;27;20198;-86
2023/08/07 12:10:27;;;;;;;5.40;3.58;;;15.40;99.90;;;;;;5142651;27;20205;-87
2023/08/07 12:13:05;;;;;;;5.13;3.30;;;15.40;99.90;;;;;;5145734;27;20202;-87
2023/08/07 12:15:36;;;;;;;6.13;3.92;;;15.40;99.90;;;;;;5140481;27;20247;-85
2023/08/07 12:18:12;;;;;;;8.57;3.95;;;15.40;99.90;;;;;;5148619;27;20581;-87
2023/08/07 12:20:51;;;;;;;6.20;3.67;;;15.40;99.90;;;;;;5154528;27;20219;-85
2023/08/07 12:23:23;;;;;;;4.85;3.30;;;15.40;99.90;;;;;;5151633;27;20201;-85
2023/08/07 12:25:54;;;;;;;6.22;3.78;;;15.30;99.90;;;;;;5140576;27;20683;-87
2023/08/07 12:28:25;;;;;;;7.00;3.63;;;15.30;99.90;;;;;;5136854;27;20623;-87
2023/08/07 12:30:56;;;;;;;5.97;3.70;;;15.30;99.90;;;;;;5138350;27;20627;-87
2023/08/07 12:33:29;;;;;;;7.03;3.78;;;15.30;99.90;;;;;;5137814;27;20186;-85
2023/08/07 12:36:00;;;;;;;5.97;3.53;;;15.20;99.90;;;;;;5135553;27;20657;-87
2023/08/07 12:38:31;;;;;;;6.10;3.13;;;15.30;99.90;;;;;;5140384;27;20626;-85
2023/08/07 12:41:03;;;;;;;4.60;2.97;;;15.30;99.90;;;;;;5141212;27;20227;-86
2023/08/07 12:43:34;;;;;;;7.15;3.30;;;15.30;99.90;;;;;;5140016;27;20210;-83
2023/08/07 12:46:05;;;;;;;6.20;3.28;;;15.30;99.90;;;;;;5146373;27;20743;-85
2023/08/07 12:48:38;;;;;;;7.32;3.38;;;15.30;99.90;;;;;;5143416;27;20198;-86
2023/08/07 12:51:09;;;;;;;4.60;3.33;;;15.30;99.90;;;;;;5147092;27;20220;-86
2023/08/07 12:53:40;;;;;;;6.10;3.20;;;15.30;99.90;;;;;;5137710;27;20202;-87
2023/08/07 12:56:11;;;;;;;5.13;3.30;;;15.30;99.90;;;;;;5138681;27;20292;-85
2023/08/07 12:58:42;;;;;;;6.25;3.33;;;15.30;99.90;;;;;;5137953;27;20194;-87
2023/08/07 13:01:13;;;;;;;5.35;3.40;;;15.30;99.90;;;;;;5157840;27;20193;-87
2023/08/07 13:03:49;;;;;;;7.00;3.10;;;15.20;99.90;;;;;;5154437;27;20185;-89
2023/08/07 13:06:20;;;;;;;5.00;2.80;;;15.20;99.90;;;;;;5156678;27;20690;-87
2023/08/07 13:08:51;;;;;;;5.40;2.88;;;15.30;99.90;;;;;;5149724;27;20288;-86
2023/08/07 13:11:21;;;;;;;6.68;3.00;;;15.30;99.90;;;;;;5154562;27;20199;-86
2023/08/07 13:13:53;;;;;;;7.10;3.25;;;15.30;99.90;;;;;;5147240;27;20282;-87